sensor_id;sensor_type;location;lat;lon;timestamp;temperature;humidity
7248;DHT22;3665;51.034;13.642;2023-03-14T00:00:46;9.90;99.90
7248;DHT22;3665;51.034;13.642;2023-03-14T00:05:41;9.90;99.90
7248;DHT22;3665;51.034;13.642;2023-03-14T00:10:48;9.80;99.90
7248;DHT22;3665;51.034;13.642;2023-03-14T00:15:36;9.80;99.90
7248;DHT22;3665;51.034;13.642;2023-03-14T00:20:20;9.80;99.90
7248;DHT22;3665;51.034;13.642;2023-03-14T00:25:11;9.70;99.90
7248;DHT22;3665;51.034;13.642;2023-03-14T00:29:58;9.70;99.90
7248;DHT22;3665;51.034;13.642;2023-03-14T00:34:48;9.50;99.90
7248;DHT22;3665;51.034;13.642;2023-03-14T00:39:34;9.40;99.90
7248;DHT22;3665;51.034;13.642;2023-03-14T00:44:26;9.30;99.90
7248;DHT22;3665;51.034;13.642;2023-03-14T00:49:10;9.30;99.90
7248;DHT22;3665;51.034;13.642;2023-03-14T00:54:32;9.20;99.90
7248;DHT22;3665;51.034;13.642;2023-03-14T00:59:41;9.20;99.90
7248;DHT22;3665;51.034;13.642;2023-03-14T01:05:14;9.20;99.90
7248;DHT22;3665;51.034;13.642;2023-03-14T01:10:14;9.20;99.90
7248;DHT22;3665;51.034;13.642;2023-03-14T01:16:09;9.20;99.90
7248;DHT22;3665;51.034;13.642;2023-03-14T01:21:31;9.10;99.90
7248;DHT22;3665;51.034;13.642;2023-03-14T01:27:04;9.10;99.90
7248;DHT22;3665;51.034;13.642;2023-03-14T01:31:48;9.20;99.90
7248;DHT22;3665;51.034;13.642;2023-03-14T01:36:41;9.30;99.90
7248;DHT22;3665;51.034;13.642;2023-03-14T01:41:27;9.40;99.90
7248;DHT22;3665;51.034;13.642;2023-03-14T01:46:34;9.40;99.90
7248;DHT22;3665;51.034;13.642;2023-03-14T01:51:59;9.50;99.90
7248;DHT22;3665;51.034;13.642;2023-03-14T01:57:04;9.60;99.90
7248;DHT22;3665;51.034;13.642;2023-03-14T02:01:59;9.70;99.90
7248;DHT22;3665;51.034;13.642;2023-03-14T02:06:50;9.70;99.90
7248;DHT22;3665;51.034;13.642;2023-03-14T02:11:42;9.60;99.90
7248;DHT22;3665;51.034;13.642;2023-03-14T02:17:03;9.70;99.90
7248;DHT22;3665;51.034;13.642;2023-03-14T02:22:14;9.60;99.90
7248;DHT22;3665;51.034;13.642;2023-03-14T02:27:19;9.60;99.90
7248;DHT22;3665;51.034;13.642;2023-03-14T02:32:07;9.70;99.90
7248;DHT22;3665;51.034;13.642;2023-03-14T02:36:53;9.70;99.90
7248;DHT22;3665;51.034;13.642;2023-03-14T02:41:40;9.70;99.90
7248;DHT22;3665;51.034;13.642;2023-03-14T02:46:34;9.80;99.90
7248;DHT22;3665;51.034;13.642;2023-03-14T02:51:18;9.90;99.90
7248;DHT22;3665;51.034;13.642;2023-03-14T02:56:05;10.10;99.90
7248;DHT22;3665;51.034;13.642;2023-03-14T03:00:53;10.30;99.90
7248;DHT22;3665;51.034;13.642;2023-03-14T03:05:48;10.30;99.90
7248;DHT22;3665;51.034;13.642;2023-03-14T03:11:04;10.20;99.90
7248;DHT22;3665;51.034;13.642;2023-03-14T03:15:49;10.20;99.90
7248;DHT22;3665;51.034;13.642;2023-03-14T03:20:39;10.20;99.90
7248;DHT22;3665;51.034;13.642;2023-03-14T03:25:27;10.20;99.90
7248;DHT22;3665;51.034;13.642;2023-03-14T03:30:14;10.30;99.90
7248;DHT22;3665;51.034;13.642;2023-03-14T03:35:02;10.20;99.90
7248;DHT22;3665;51.034;13.642;2023-03-14T03:39:50;10.30;99.90
7248;DHT22;3665;51.034;13.642;2023-03-14T03:44:38;10.30;99.90
7248;DHT22;3665;51.034;13.642;2023-03-14T03:49:28;10.30;94.70
7248;DHT22;3665;51.034;13.642;2023-03-14T03:54:21;10.20;99.90
7248;DHT22;3665;51.034;13.642;2023-03-14T03:59:40;10.20;92.10
7248;DHT22;3665;51.034;13.642;2023-03-14T04:04:23;10.20;92.90
7248;DHT22;3665;51.034;13.642;2023-03-14T04:09:09;10.10;93.40
7248;DHT22;3665;51.034;13.642;2023-03-14T04:14:06;10.10;87.80
7248;DHT22;3665;51.034;13.642;2023-03-14T04:19:01;10.00;92.60
7248;DHT22;3665;51.034;13.642;2023-03-14T04:23:52;9.90;99.60
7248;DHT22;3665;51.034;13.642;2023-03-14T04:28:37;9.80;99.90
7248;DHT22;3665;51.034;13.642;2023-03-14T04:33:25;9.60;99.90
7248;DHT22;3665;51.034;13.642;2023-03-14T04:38:16;9.70;96.70
7248;DHT22;3665;51.034;13.642;2023-03-14T04:43:01;9.70;70.40
7248;DHT22;3665;51.034;13.642;2023-03-14T04:47:51;9.80;70.60
7248;DHT22;3665;51.034;13.642;2023-03-14T04:52:38;9.80;60.60
7248;DHT22;3665;51.034;13.642;2023-03-14T04:57:25;9.70;60.00
7248;DHT22;3665;51.034;13.642;2023-03-14T05:02:13;9.70;61.40
7248;DHT22;3665;51.034;13.642;2023-03-14T05:07:16;9.60;65.10
7248;DHT22;3665;51.034;13.642;2023-03-14T05:12:37;9.60;80.00
7248;DHT22;3665;51.034;13.642;2023-03-14T05:17:40;9.60;65.70
7248;DHT22;3665;51.034;13.642;2023-03-14T05:22:46;9.60;72.20
7248;DHT22;3665;51.034;13.642;2023-03-14T05:28:09;9.50;75.70
7248;DHT22;3665;51.034;13.642;2023-03-14T05:33:01;9.50;66.70
7248;DHT22;3665;51.034;13.642;2023-03-14T05:38:14;9.40;77.60
7248;DHT22;3665;51.034;13.642;2023-03-14T05:43:19;9.40;79.20
7248;DHT22;3665;51.034;13.642;2023-03-14T05:48:31;9.50;81.10
7248;DHT22;3665;51.034;13.642;2023-03-14T05:53:47;9.40;87.20
7248;DHT22;3665;51.034;13.642;2023-03-14T05:59:01;9.40;66.90
7248;DHT22;3665;51.034;13.642;2023-03-14T06:04:05;9.40;73.40
7248;DHT22;3665;51.034;13.642;2023-03-14T06:08:53;9.50;64.20
7248;DHT22;3665;51.034;13.642;2023-03-14T06:13:41;9.40;79.60
7248;DHT22;3665;51.034;13.642;2023-03-14T06:18:29;9.30;88.90
7248;DHT22;3665;51.034;13.642;2023-03-14T06:23:17;9.50;59.20
7248;DHT22;3665;51.034;13.642;2023-03-14T06:28:04;9.60;50.90
7248;DHT22;3665;51.034;13.642;2023-03-14T06:32:55;9.80;45.20
7248;DHT22;3665;51.034;13.642;2023-03-14T06:37:42;9.90;38.30
7248;DHT22;3665;51.034;13.642;2023-03-14T06:42:32;10.00;38.20
7248;DHT22;3665;51.034;13.642;2023-03-14T06:47:18;10.10;37.60
7248;DHT22;3665;51.034;13.642;2023-03-14T06:52:08;10.20;38.30
7248;DHT22;3665;51.034;13.642;2023-03-14T06:56:54;10.30;36.50
7248;DHT22;3665;51.034;13.642;2023-03-14T07:01:43;10.30;33.90
7248;DHT22;3665;51.034;13.642;2023-03-14T07:06:29;10.40;31.70
7248;DHT22;3665;51.034;13.642;2023-03-14T07:11:19;10.50;30.00
7248;DHT22;3665;51.034;13.642;2023-03-14T07:16:08;10.50;27.80
7248;DHT22;3665;51.034;13.642;2023-03-14T07:20:52;10.60;25.80
7248;DHT22;3665;51.034;13.642;2023-03-14T07:25:42;10.70;27.40
7248;DHT22;3665;51.034;13.642;2023-03-14T07:30:31;10.70;30.10
7248;DHT22;3665;51.034;13.642;2023-03-14T07:35:19;10.70;30.60
7248;DHT22;3665;51.034;13.642;2023-03-14T07:40:06;10.70;28.60
7248;DHT22;3665;51.034;13.642;2023-03-14T07:44:53;10.70;29.00
7248;DHT22;3665;51.034;13.642;2023-03-14T07:49:40;10.90;25.00
7248;DHT22;3665;51.034;13.642;2023-03-14T07:54:30;10.90;24.00
7248;DHT22;3665;51.034;13.642;2023-03-14T07:59:20;11.00;22.60
7248;DHT22;3665;51.034;13.642;2023-03-14T08:04:06;11.00;24.40
7248;DHT22;3665;51.034;13.642;2023-03-14T08:08:52;10.90;23.00
7248;DHT22;3665;51.034;13.642;2023-03-14T08:13:43;11.00;23.60
7248;DHT22;3665;51.034;13.642;2023-03-14T08:18:31;11.10;20.60
7248;DHT22;3665;51.034;13.642;2023-03-14T08:23:34;11.30;16.80
7248;DHT22;3665;51.034;13.642;2023-03-14T08:28:23;11.70;14.30
7248;DHT22;3665;51.034;13.642;2023-03-14T08:33:27;11.90;13.90
7248;DHT22;3665;51.034;13.642;2023-03-14T08:38:32;12.10;11.30
7248;DHT22;3665;51.034;13.642;2023-03-14T08:43:19;12.20;9.90
7248;DHT22;3665;51.034;13.642;2023-03-14T08:48:05;12.20;9.60
7248;DHT22;3665;51.034;13.642;2023-03-14T08:53:00;12.30;7.70
7248;DHT22;3665;51.034;13.642;2023-03-14T08:58:01;12.50;8.90
7248;DHT22;3665;51.034;13.642;2023-03-14T09:03:01;12.70;7.10
7248;DHT22;3665;51.034;13.642;2023-03-14T09:07:49;13.10;6.70
7248;DHT22;3665;51.034;13.642;2023-03-14T09:12:40;13.00;6.70
7248;DHT22;3665;51.034;13.642;2023-03-14T09:17:25;12.70;7.10
7248;DHT22;3665;51.034;13.642;2023-03-14T09:22:12;12.80;6.70
7248;DHT22;3665;51.034;13.642;2023-03-14T09:27:21;12.70;17.80
7248;DHT22;3665;51.034;13.642;2023-03-14T09:32:06;12.70;6.70
7248;DHT22;3665;51.034;13.642;2023-03-14T09:36:54;12.60;8.30
7248;DHT22;3665;51.034;13.642;2023-03-14T09:41:43;12.60;8.00
7248;DHT22;3665;51.034;13.642;2023-03-14T09:46:32;12.40;6.60
7248;DHT22;3665;51.034;13.642;2023-03-14T09:51:20;12.30;5.20
7248;DHT22;3665;51.034;13.642;2023-03-14T09:56:13;12.00;4.60
7248;DHT22;3665;51.034;13.642;2023-03-14T10:01:13;11.90;3.70
7248;DHT22;3665;51.034;13.642;2023-03-14T10:05:58;11.80;3.60
7248;DHT22;3665;51.034;13.642;2023-03-14T10:10:46;11.60;5.00
7248;DHT22;3665;51.034;13.642;2023-03-14T10:15:34;11.70;3.20
7248;DHT22;3665;51.034;13.642;2023-03-14T10:20:30;11.70;3.00
7248;DHT22;3665;51.034;13.642;2023-03-14T10:25:27;11.70;13.20
7248;DHT22;3665;51.034;13.642;2023-03-14T10:30:33;11.60;2.30
7248;DHT22;3665;51.034;13.642;2023-03-14T10:35:23;11.70;3.20
7248;DHT22;3665;51.034;13.642;2023-03-14T10:40:13;11.80;3.30
7248;DHT22;3665;51.034;13.642;2023-03-14T10:45:28;11.80;2.20
7248;DHT22;3665;51.034;13.642;2023-03-14T10:50:30;11.90;2.30
7248;DHT22;3665;51.034;13.642;2023-03-14T10:55:17;11.70;1.10
7248;DHT22;3665;51.034;13.642;2023-03-14T11:00:12;11.80;2.90
7248;DHT22;3665;51.034;13.642;2023-03-14T11:05:34;11.80;3.90
7248;DHT22;3665;51.034;13.642;2023-03-14T11:10:33;11.90;2.00
7248;DHT22;3665;51.034;13.642;2023-03-14T11:15:22;11.90;2.40
7248;DHT22;3665;51.034;13.642;2023-03-14T11:20:43;12.10;16.40
7248;DHT22;3665;51.034;13.642;2023-03-14T11:25:45;12.10;2.80
7248;DHT22;3665;51.034;13.642;2023-03-14T11:30:51;12.40;1.90
7248;DHT22;3665;51.034;13.642;2023-03-14T11:35:38;12.90;1.40
7248;DHT22;3665;51.034;13.642;2023-03-14T11:40:44;13.30;2.30
7248;DHT22;3665;51.034;13.642;2023-03-14T11:45:42;13.60;1.70
7248;DHT22;3665;51.034;13.642;2023-03-14T11:50:30;13.50;1.00
7248;DHT22;3665;51.034;13.642;2023-03-14T11:55:20;13.30;1.00
7248;DHT22;3665;51.034;13.642;2023-03-14T12:00:13;13.20;1.00
7248;DHT22;3665;51.034;13.642;2023-03-14T12:05:34;13.00;1.00
7248;DHT22;3665;51.034;13.642;2023-03-14T12:10:31;13.20;13.10
7248;DHT22;3665;51.034;13.642;2023-03-14T12:15:39;13.40;1.00
7248;DHT22;3665;51.034;13.642;2023-03-14T12:20:37;13.70;2.30
7248;DHT22;3665;51.034;13.642;2023-03-14T12:25:27;14.00;1.60
7248;DHT22;3665;51.034;13.642;2023-03-14T12:30:18;13.90;1.80
7248;DHT22;3665;51.034;13.642;2023-03-14T12:35:38;13.80;2.00
7248;DHT22;3665;51.034;13.642;2023-03-14T12:40:28;13.60;1.50
7248;DHT22;3665;51.034;13.642;2023-03-14T12:45:41;13.40;2.70
7248;DHT22;3665;51.034;13.642;2023-03-14T12:50:53;13.60;2.10
7248;DHT22;3665;51.034;13.642;2023-03-14T12:55:57;13.80;3.80
7248;DHT22;3665;51.034;13.642;2023-03-14T13:00:56;14.40;4.30
7248;DHT22;3665;51.034;13.642;2023-03-14T13:06:02;14.40;2.30
7248;DHT22;3665;51.034;13.642;2023-03-14T13:10:49;14.50;4.30
7248;DHT22;3665;51.034;13.642;2023-03-14T13:15:39;14.70;2.80
7248;DHT22;3665;51.034;13.642;2023-03-14T13:20:41;14.50;2.60
7248;DHT22;3665;51.034;13.642;2023-03-14T13:25:32;14.10;2.10
7248;DHT22;3665;51.034;13.642;2023-03-14T13:30:39;14.40;3.80
7248;DHT22;3665;51.034;13.642;2023-03-14T13:35:43;14.50;2.10
7248;DHT22;3665;51.034;13.642;2023-03-14T13:40:37;14.50;3.00
7248;DHT22;3665;51.034;13.642;2023-03-14T13:45:25;14.50;2.30
7248;DHT22;3665;51.034;13.642;2023-03-14T13:50:18;14.40;3.00
7248;DHT22;3665;51.034;13.642;2023-03-14T13:55:03;14.30;3.30
7248;DHT22;3665;51.034;13.642;2023-03-14T14:00:06;14.40;3.80
7248;DHT22;3665;51.034;13.642;2023-03-14T14:04:53;14.20;13.10
7248;DHT22;3665;51.034;13.642;2023-03-14T14:09:47;13.90;1.00
7248;DHT22;3665;51.034;13.642;2023-03-14T14:14:33;13.80;1.00
7248;DHT22;3665;51.034;13.642;2023-03-14T14:19:22;13.90;1.20
7248;DHT22;3665;51.034;13.642;2023-03-14T14:24:08;14.40;1.90
7248;DHT22;3665;51.034;13.642;2023-03-14T14:28:59;14.20;1.00
7248;DHT22;3665;51.034;13.642;2023-03-14T14:34:00;14.20;1.00
7248;DHT22;3665;51.034;13.642;2023-03-14T14:38:51;14.30;1.00
7248;DHT22;3665;51.034;13.642;2023-03-14T14:43:38;13.80;1.00
7248;DHT22;3665;51.034;13.642;2023-03-14T14:48:25;13.50;1.00
7248;DHT22;3665;51.034;13.642;2023-03-14T14:53:29;13.60;1.00
7248;DHT22;3665;51.034;13.642;2023-03-14T14:58:20;13.70;1.00
7248;DHT22;3665;51.034;13.642;2023-03-14T15:03:19;13.80;1.00
7248;DHT22;3665;51.034;13.642;2023-03-14T15:08:08;14.20;1.00
7248;DHT22;3665;51.034;13.642;2023-03-14T15:12:53;14.20;1.00
7248;DHT22;3665;51.034;13.642;2023-03-14T15:17:42;13.60;1.00
7248;DHT22;3665;51.034;13.642;2023-03-14T15:22:29;13.30;1.00
7248;DHT22;3665;51.034;13.642;2023-03-14T15:27:18;13.10;1.00
7248;DHT22;3665;51.034;13.642;2023-03-14T15:32:07;12.90;1.00
7248;DHT22;3665;51.034;13.642;2023-03-14T15:36:56;12.90;1.00
7248;DHT22;3665;51.034;13.642;2023-03-14T15:41:43;12.80;1.00
7248;DHT22;3665;51.034;13.642;2023-03-14T15:46:30;13.00;1.00
7248;DHT22;3665;51.034;13.642;2023-03-14T15:51:18;13.00;1.00
7248;DHT22;3665;51.034;13.642;2023-03-14T15:56:11;12.80;1.00
7248;DHT22;3665;51.034;13.642;2023-03-14T16:00:55;12.70;1.00
7248;DHT22;3665;51.034;13.642;2023-03-14T16:05:42;12.70;1.00
7248;DHT22;3665;51.034;13.642;2023-03-14T16:10:29;12.40;1.00
7248;DHT22;3665;51.034;13.642;2023-03-14T16:15:21;12.20;1.00
7248;DHT22;3665;51.034;13.642;2023-03-14T16:20:05;12.10;1.00
7248;DHT22;3665;51.034;13.642;2023-03-14T16:24:54;11.80;8.50
7248;DHT22;3665;51.034;13.642;2023-03-14T16:29:43;11.10;42.00
7248;DHT22;3665;51.034;13.642;2023-03-14T16:34:48;10.50;99.90
7248;DHT22;3665;51.034;13.642;2023-03-14T16:39:40;9.90;99.90
7248;DHT22;3665;51.034;13.642;2023-03-14T16:45:16;9.50;99.90
7248;DHT22;3665;51.034;13.642;2023-03-14T16:50:18;7.50;99.90
7248;DHT22;3665;51.034;13.642;2023-03-14T16:55:01;6.00;1.00
7248;DHT22;3665;51.034;13.642;2023-03-14T16:59:51;5.50;99.90
7248;DHT22;3665;51.034;13.642;2023-03-14T17:04:50;5.20;99.90
7248;DHT22;3665;51.034;13.642;2023-03-14T17:09:39;5.30;99.90
7248;DHT22;3665;51.034;13.642;2023-03-14T17:14:26;5.10;99.90
7248;DHT22;3665;51.034;13.642;2023-03-14T17:19:14;4.60;99.90
7248;DHT22;3665;51.034;13.642;2023-03-14T17:24:00;4.50;99.90
7248;DHT22;3665;51.034;13.642;2023-03-14T17:28:56;4.30;99.90
7248;DHT22;3665;51.034;13.642;2023-03-14T17:33:57;4.10;99.90
7248;DHT22;3665;51.034;13.642;2023-03-14T17:38:40;3.80;99.90
7248;DHT22;3665;51.034;13.642;2023-03-14T17:43:27;3.60;99.90
7248;DHT22;3665;51.034;13.642;2023-03-14T17:48:15;3.40;1.00
7248;DHT22;3665;51.034;13.642;2023-03-14T17:53:05;3.20;1.00
7248;DHT22;3665;51.034;13.642;2023-03-14T17:57:51;3.10;99.90
7248;DHT22;3665;51.034;13.642;2023-03-14T18:02:40;2.90;99.90
7248;DHT22;3665;51.034;13.642;2023-03-14T18:07:28;2.60;1.00
7248;DHT22;3665;51.034;13.642;2023-03-14T18:12:18;2.40;1.00
7248;DHT22;3665;51.034;13.642;2023-03-14T18:17:06;2.20;99.90
7248;DHT22;3665;51.034;13.642;2023-03-14T18:21:53;2.00;99.90
7248;DHT22;3665;51.034;13.642;2023-03-14T18:26:41;2.00;99.90
7248;DHT22;3665;51.034;13.642;2023-03-14T18:31:28;2.00;99.90
7248;DHT22;3665;51.034;13.642;2023-03-14T18:36:15;2.10;99.90
7248;DHT22;3665;51.034;13.642;2023-03-14T18:41:09;2.20;99.90
7248;DHT22;3665;51.034;13.642;2023-03-14T18:45:56;2.30;99.90
7248;DHT22;3665;51.034;13.642;2023-03-14T18:50:40;2.30;99.90
7248;DHT22;3665;51.034;13.642;2023-03-14T18:55:30;2.20;99.90
7248;DHT22;3665;51.034;13.642;2023-03-14T19:00:16;2.40;99.90
7248;DHT22;3665;51.034;13.642;2023-03-14T19:05:05;2.30;99.90
7248;DHT22;3665;51.034;13.642;2023-03-14T19:09:52;2.30;99.90
7248;DHT22;3665;51.034;13.642;2023-03-14T19:14:39;2.10;99.90
7248;DHT22;3665;51.034;13.642;2023-03-14T19:19:32;2.10;99.90
7248;DHT22;3665;51.034;13.642;2023-03-14T19:24:18;2.00;99.90
7248;DHT22;3665;51.034;13.642;2023-03-14T19:29:03;2.10;99.90
7248;DHT22;3665;51.034;13.642;2023-03-14T19:33:57;2.10;99.90
7248;DHT22;3665;51.034;13.642;2023-03-14T19:38:41;2.10;99.90
7248;DHT22;3665;51.034;13.642;2023-03-14T19:43:28;2.10;99.90
7248;DHT22;3665;51.034;13.642;2023-03-14T19:48:17;2.00;99.90
7248;DHT22;3665;51.034;13.642;2023-03-14T19:53:07;2.10;99.90
7248;DHT22;3665;51.034;13.642;2023-03-14T19:57:54;1.90;99.90
7248;DHT22;3665;51.034;13.642;2023-03-14T20:02:42;1.90;99.90
7248;DHT22;3665;51.034;13.642;2023-03-14T20:07:30;1.80;99.90
7248;DHT22;3665;51.034;13.642;2023-03-14T20:12:18;1.80;99.90
7248;DHT22;3665;51.034;13.642;2023-03-14T20:17:03;1.80;99.90
7248;DHT22;3665;51.034;13.642;2023-03-14T20:21:51;1.90;99.90
7248;DHT22;3665;51.034;13.642;2023-03-14T20:26:43;1.90;99.90
7248;DHT22;3665;51.034;13.642;2023-03-14T20:31:45;2.00;99.90
7248;DHT22;3665;51.034;13.642;2023-03-14T20:36:35;2.00;99.90
7248;DHT22;3665;51.034;13.642;2023-03-14T20:41:21;2.10;99.90
7248;DHT22;3665;51.034;13.642;2023-03-14T20:46:09;2.10;99.90
7248;DHT22;3665;51.034;13.642;2023-03-14T20:51:52;2.10;1.00
7248;DHT22;3665;51.034;13.642;2023-03-14T20:57:54;1.90;99.90
7248;DHT22;3665;51.034;13.642;2023-03-14T21:04:18;1.80;38.50
7248;DHT22;3665;51.034;13.642;2023-03-14T21:09:58;1.60;24.90
7248;DHT22;3665;51.034;13.642;2023-03-14T21:15:53;1.50;26.20
7248;DHT22;3665;51.034;13.642;2023-03-14T21:22:30;1.40;2.00
7248;DHT22;3665;51.034;13.642;2023-03-14T21:29:07;1.30;1.00
7248;DHT22;3665;51.034;13.642;2023-03-14T21:46:30;1.10;14.40
7248;DHT22;3665;51.034;13.642;2023-03-14T21:52:23;1.00;13.90
7248;DHT22;3665;51.034;13.642;2023-03-14T21:58:09;0.90;8.40
7248;DHT22;3665;51.034;13.642;2023-03-14T22:32:06;0.70;1.00
7248;DHT22;3665;51.034;13.642;2023-03-14T22:37:57;0.70;1.00
7248;DHT22;3665;51.034;13.642;2023-03-14T22:42:58;0.60;1.00
7248;DHT22;3665;51.034;13.642;2023-03-14T22:47:45;0.30;1.00
7248;DHT22;3665;51.034;13.642;2023-03-14T22:52:34;0.40;1.00
7248;DHT22;3665;51.034;13.642;2023-03-14T22:57:20;0.30;5.90
7248;DHT22;3665;51.034;13.642;2023-03-14T23:02:07;0.10;21.80
7248;DHT22;3665;51.034;13.642;2023-03-14T23:06:57;0.20;35.10
7248;DHT22;3665;51.034;13.642;2023-03-14T23:11:44;0.20;28.00
7248;DHT22;3665;51.034;13.642;2023-03-14T23:17:05;0.20;34.70
7248;DHT22;3665;51.034;13.642;2023-03-14T23:21:52;0.20;33.80
7248;DHT22;3665;51.034;13.642;2023-03-14T23:26:41;0.40;1.00
7248;DHT22;3665;51.034;13.642;2023-03-14T23:31:46;0.20;1.00
7248;DHT22;3665;51.034;13.642;2023-03-14T23:36:34;0.10;1.00
7248;DHT22;3665;51.034;13.642;2023-03-14T23:41:20;0.00;1.00
7248;DHT22;3665;51.034;13.642;2023-03-14T23:46:09;-0.10;10.70
7248;DHT22;3665;51.034;13.642;2023-03-14T23:50:56;-0.30;32.00
7248;DHT22;3665;51.034;13.642;2023-03-14T23:55:44;-0.30;47.40
